Terminal Aerodrome Forecast
Issued by NWS

Home | Current Version | Previous Version | Text Only | Print | Product List | Glossary On
Versions: 1 2 3 4 5 6 7 8 9 10 11 12 13 14 15 16 17 18 19 20 21
000
FTUS43 KGRR 270529
TAFMKG
TAF
KMKG 270529Z 2706/2806 26013KT P6SM BKN080
     FM271600 26016G23KT P6SM VCSH OVC040
     FM271800 26012G18KT P6SM VCSH OVC040
     FM280100 26006KT 5SM BR VCSH OVC015
     FM280400 26005KT 3SM -RA BR OVC007=

USA.gov is the U.S. government's official web portal to all federal, state and local government web resources and services.